sensor_id;sensor_type;location;lat;lon;timestamp;P1;durP1;ratioP1;P2;durP2;ratioP2
8556;SDS011;4316;53.840;10.762;2023-01-15T00:01:35;2.80;;;0.90;;
8556;SDS011;4316;53.840;10.762;2023-01-15T00:04:02;3.07;;;1.10;;
8556;SDS011;4316;53.840;10.762;2023-01-15T00:06:30;4.90;;;1.27;;
8556;SDS011;4316;53.840;10.762;2023-01-15T00:09:02;6.53;;;1.30;;
8556;SDS011;4316;53.840;10.762;2023-01-15T00:11:28;3.60;;;1.27;;
8556;SDS011;4316;53.840;10.762;2023-01-15T00:13:54;4.10;;;1.47;;
8556;SDS011;4316;53.840;10.762;2023-01-15T00:16:22;6.53;;;1.80;;
8556;SDS011;4316;53.840;10.762;2023-01-15T00:18:58;5.10;;;1.40;;
8556;SDS011;4316;53.840;10.762;2023-01-15T00:21:25;8.70;;;2.10;;
8556;SDS011;4316;53.840;10.762;2023-01-15T00:23:53;6.43;;;1.53;;
8556;SDS011;4316;53.840;10.762;2023-01-15T00:26:38;4.13;;;1.50;;
8556;SDS011;4316;53.840;10.762;2023-01-15T00:29:23;4.73;;;1.40;;
8556;SDS011;4316;53.840;10.762;2023-01-15T00:31:55;4.33;;;1.47;;
8556;SDS011;4316;53.840;10.762;2023-01-15T00:34:28;12.70;;;1.93;;
8556;SDS011;4316;53.840;10.762;2023-01-15T00:36:55;4.60;;;1.80;;
8556;SDS011;4316;53.840;10.762;2023-01-15T00:39:21;5.07;;;1.47;;
8556;SDS011;4316;53.840;10.762;2023-01-15T00:41:48;8.07;;;1.90;;
8556;SDS011;4316;53.840;10.762;2023-01-15T00:44:15;8.03;;;1.53;;
8556;SDS011;4316;53.840;10.762;2023-01-15T00:46:40;4.87;;;1.40;;
8556;SDS011;4316;53.840;10.762;2023-01-15T00:49:07;7.07;;;1.57;;
8556;SDS011;4316;53.840;10.762;2023-01-15T00:51:34;7.30;;;2.13;;
8556;SDS011;4316;53.840;10.762;2023-01-15T00:54:00;7.17;;;1.30;;
8556;SDS011;4316;53.840;10.762;2023-01-15T00:56:26;3.33;;;1.43;;
8556;SDS011;4316;53.840;10.762;2023-01-15T00:58:52;9.00;;;1.70;;
8556;SDS011;4316;53.840;10.762;2023-01-15T01:01:18;6.27;;;1.33;;
8556;SDS011;4316;53.840;10.762;2023-01-15T01:03:45;6.33;;;1.60;;
8556;SDS011;4316;53.840;10.762;2023-01-15T01:06:13;2.67;;;1.17;;
8556;SDS011;4316;53.840;10.762;2023-01-15T01:08:41;5.53;;;1.63;;
8556;SDS011;4316;53.840;10.762;2023-01-15T01:11:09;4.10;;;1.30;;
8556;SDS011;4316;53.840;10.762;2023-01-15T01:13:37;4.80;;;1.77;;
8556;SDS011;4316;53.840;10.762;2023-01-15T01:16:04;7.33;;;1.63;;
8556;SDS011;4316;53.840;10.762;2023-01-15T01:18:57;5.83;;;1.53;;
8556;SDS011;4316;53.840;10.762;2023-01-15T01:21:24;6.67;;;1.77;;
8556;SDS011;4316;53.840;10.762;2023-01-15T01:23:51;5.47;;;1.50;;
8556;SDS011;4316;53.840;10.762;2023-01-15T01:26:17;2.17;;;1.50;;
8556;SDS011;4316;53.840;10.762;2023-01-15T01:28:53;6.37;;;1.37;;
8556;SDS011;4316;53.840;10.762;2023-01-15T01:31:20;10.33;;;1.53;;
8556;SDS011;4316;53.840;10.762;2023-01-15T01:33:50;3.83;;;1.20;;
8556;SDS011;4316;53.840;10.762;2023-01-15T01:36:17;5.57;;;1.37;;
8556;SDS011;4316;53.840;10.762;2023-01-15T01:38:48;6.13;;;1.73;;
8556;SDS011;4316;53.840;10.762;2023-01-15T01:41:15;2.47;;;0.90;;
8556;SDS011;4316;53.840;10.762;2023-01-15T01:46:32;5.00;;;1.67;;
8556;SDS011;4316;53.840;10.762;2023-01-15T01:49:03;8.30;;;1.53;;
8556;SDS011;4316;53.840;10.762;2023-01-15T01:51:34;7.77;;;1.63;;
8556;SDS011;4316;53.840;10.762;2023-01-15T01:54:08;6.57;;;2.07;;
8556;SDS011;4316;53.840;10.762;2023-01-15T01:56:35;7.13;;;2.10;;
8556;SDS011;4316;53.840;10.762;2023-01-15T01:59:01;3.50;;;1.10;;
8556;SDS011;4316;53.840;10.762;2023-01-15T02:01:29;4.37;;;1.57;;
8556;SDS011;4316;53.840;10.762;2023-01-15T02:03:55;8.63;;;1.70;;
8556;SDS011;4316;53.840;10.762;2023-01-15T02:06:23;2.27;;;1.47;;
8556;SDS011;4316;53.840;10.762;2023-01-15T02:08:50;3.33;;;1.20;;
8556;SDS011;4316;53.840;10.762;2023-01-15T02:11:18;7.00;;;1.87;;
8556;SDS011;4316;53.840;10.762;2023-01-15T02:19:09;3.70;;;1.40;;
8556;SDS011;4316;53.840;10.762;2023-01-15T02:27:31;9.23;;;1.57;;
8556;SDS011;4316;53.840;10.762;2023-01-15T02:29:59;5.63;;;1.63;;
8556;SDS011;4316;53.840;10.762;2023-01-15T02:32:53;2.57;;;1.20;;
8556;SDS011;4316;53.840;10.762;2023-01-15T02:38:12;5.93;;;1.23;;
8556;SDS011;4316;53.840;10.762;2023-01-15T02:40:46;7.23;;;1.70;;
8556;SDS011;4316;53.840;10.762;2023-01-15T02:43:16;9.57;;;2.03;;
8556;SDS011;4316;53.840;10.762;2023-01-15T02:45:46;11.03;;;1.93;;
8556;SDS011;4316;53.840;10.762;2023-01-15T02:48:16;4.80;;;1.57;;
8556;SDS011;4316;53.840;10.762;2023-01-15T02:50:47;7.63;;;1.73;;
8556;SDS011;4316;53.840;10.762;2023-01-15T02:53:22;6.53;;;1.73;;
8556;SDS011;4316;53.840;10.762;2023-01-15T02:55:55;7.83;;;2.03;;
8556;SDS011;4316;53.840;10.762;2023-01-15T02:58:30;6.33;;;2.17;;
8556;SDS011;4316;53.840;10.762;2023-01-15T03:01:04;8.90;;;1.97;;
8556;SDS011;4316;53.840;10.762;2023-01-15T03:03:38;4.10;;;1.80;;
8556;SDS011;4316;53.840;10.762;2023-01-15T03:06:37;11.03;;;2.20;;
8556;SDS011;4316;53.840;10.762;2023-01-15T03:09:13;3.20;;;1.33;;
8556;SDS011;4316;53.840;10.762;2023-01-15T03:11:46;6.40;;;1.80;;
8556;SDS011;4316;53.840;10.762;2023-01-15T03:14:21;7.90;;;1.97;;
8556;SDS011;4316;53.840;10.762;2023-01-15T03:16:58;7.27;;;2.17;;
8556;SDS011;4316;53.840;10.762;2023-01-15T03:22:25;3.70;;;1.30;;
8556;SDS011;4316;53.840;10.762;2023-01-15T03:24:54;7.63;;;2.13;;
8556;SDS011;4316;53.840;10.762;2023-01-15T03:27:26;7.10;;;1.80;;
8556;SDS011;4316;53.840;10.762;2023-01-15T03:29:59;6.67;;;2.13;;
8556;SDS011;4316;53.840;10.762;2023-01-15T03:32:37;7.50;;;2.57;;
8556;SDS011;4316;53.840;10.762;2023-01-15T03:35:05;10.57;;;2.37;;
8556;SDS011;4316;53.840;10.762;2023-01-15T03:37:52;11.10;;;2.17;;
8556;SDS011;4316;53.840;10.762;2023-01-15T03:40:18;4.00;;;1.47;;
8556;SDS011;4316;53.840;10.762;2023-01-15T03:42:55;11.33;;;2.20;;
8556;SDS011;4316;53.840;10.762;2023-01-15T03:45:45;10.30;;;1.93;;
8556;SDS011;4316;53.840;10.762;2023-01-15T03:51:00;9.67;;;1.80;;
8556;SDS011;4316;53.840;10.762;2023-01-15T03:53:53;7.83;;;2.00;;
8556;SDS011;4316;53.840;10.762;2023-01-15T03:56:30;7.37;;;2.17;;
8556;SDS011;4316;53.840;10.762;2023-01-15T03:59:12;11.60;;;2.27;;
8556;SDS011;4316;53.840;10.762;2023-01-15T04:01:58;4.67;;;1.80;;
8556;SDS011;4316;53.840;10.762;2023-01-15T04:04:27;9.80;;;2.10;;
8556;SDS011;4316;53.840;10.762;2023-01-15T04:06:54;7.43;;;2.03;;
8556;SDS011;4316;53.840;10.762;2023-01-15T04:09:21;4.83;;;1.23;;
8556;SDS011;4316;53.840;10.762;2023-01-15T04:11:50;14.57;;;2.73;;
8556;SDS011;4316;53.840;10.762;2023-01-15T04:14:16;7.83;;;2.43;;
8556;SDS011;4316;53.840;10.762;2023-01-15T04:16:49;7.40;;;2.13;;
8556;SDS011;4316;53.840;10.762;2023-01-15T04:19:15;10.47;;;2.10;;
8556;SDS011;4316;53.840;10.762;2023-01-15T04:21:53;8.87;;;1.70;;
8556;SDS011;4316;53.840;10.762;2023-01-15T04:24:19;7.87;;;2.00;;
8556;SDS011;4316;53.840;10.762;2023-01-15T04:26:44;10.00;;;1.90;;
8556;SDS011;4316;53.840;10.762;2023-01-15T04:29:10;6.37;;;2.30;;
8556;SDS011;4316;53.840;10.762;2023-01-15T04:31:36;9.20;;;2.00;;
8556;SDS011;4316;53.840;10.762;2023-01-15T04:34:02;12.53;;;2.67;;
8556;SDS011;4316;53.840;10.762;2023-01-15T04:36:28;8.03;;;2.63;;
8556;SDS011;4316;53.840;10.762;2023-01-15T04:38:55;7.47;;;1.93;;
8556;SDS011;4316;53.840;10.762;2023-01-15T04:41:22;6.83;;;1.77;;
8556;SDS011;4316;53.840;10.762;2023-01-15T04:44:06;9.63;;;2.10;;
8556;SDS011;4316;53.840;10.762;2023-01-15T04:46:33;5.90;;;1.70;;
8556;SDS011;4316;53.840;10.762;2023-01-15T04:49:04;10.13;;;2.23;;
8556;SDS011;4316;53.840;10.762;2023-01-15T04:51:31;10.17;;;2.13;;
8556;SDS011;4316;53.840;10.762;2023-01-15T04:53:57;9.07;;;2.37;;
8556;SDS011;4316;53.840;10.762;2023-01-15T04:56:23;11.90;;;2.23;;
8556;SDS011;4316;53.840;10.762;2023-01-15T04:58:49;10.23;;;2.87;;
8556;SDS011;4316;53.840;10.762;2023-01-15T05:01:15;7.23;;;1.80;;
8556;SDS011;4316;53.840;10.762;2023-01-15T05:03:42;8.73;;;2.03;;
8556;SDS011;4316;53.840;10.762;2023-01-15T05:06:08;4.70;;;1.60;;
8556;SDS011;4316;53.840;10.762;2023-01-15T05:08:35;9.33;;;2.17;;
8556;SDS011;4316;53.840;10.762;2023-01-15T05:11:05;10.73;;;2.83;;
8556;SDS011;4316;53.840;10.762;2023-01-15T05:13:31;6.20;;;2.17;;
8556;SDS011;4316;53.840;10.762;2023-01-15T05:16:14;10.93;;;3.00;;
8556;SDS011;4316;53.840;10.762;2023-01-15T05:18:46;12.73;;;2.70;;
8556;SDS011;4316;53.840;10.762;2023-01-15T05:21:12;13.87;;;2.53;;
8556;SDS011;4316;53.840;10.762;2023-01-15T05:23:43;5.63;;;2.33;;
8556;SDS011;4316;53.840;10.762;2023-01-15T05:26:09;13.67;;;2.20;;
8556;SDS011;4316;53.840;10.762;2023-01-15T05:28:35;13.07;;;2.20;;
8556;SDS011;4316;53.840;10.762;2023-01-15T05:31:04;8.07;;;2.30;;
8556;SDS011;4316;53.840;10.762;2023-01-15T05:33:35;10.30;;;2.50;;
8556;SDS011;4316;53.840;10.762;2023-01-15T05:36:05;7.03;;;2.53;;
8556;SDS011;4316;53.840;10.762;2023-01-15T05:38:33;10.60;;;2.50;;
8556;SDS011;4316;53.840;10.762;2023-01-15T05:41:06;10.63;;;2.63;;
8556;SDS011;4316;53.840;10.762;2023-01-15T05:43:53;7.77;;;2.23;;
8556;SDS011;4316;53.840;10.762;2023-01-15T05:46:20;7.60;;;2.43;;
8556;SDS011;4316;53.840;10.762;2023-01-15T05:48:46;8.43;;;2.10;;
8556;SDS011;4316;53.840;10.762;2023-01-15T05:51:12;9.97;;;2.47;;
8556;SDS011;4316;53.840;10.762;2023-01-15T05:53:38;8.87;;;2.43;;
8556;SDS011;4316;53.840;10.762;2023-01-15T05:56:04;10.30;;;1.77;;
8556;SDS011;4316;53.840;10.762;2023-01-15T05:58:30;9.20;;;2.70;;
8556;SDS011;4316;53.840;10.762;2023-01-15T06:00:56;11.20;;;2.67;;
8556;SDS011;4316;53.840;10.762;2023-01-15T06:03:22;3.63;;;2.00;;
8556;SDS011;4316;53.840;10.762;2023-01-15T06:05:50;14.17;;;2.03;;
8556;SDS011;4316;53.840;10.762;2023-01-15T06:08:20;17.53;;;2.57;;
8556;SDS011;4316;53.840;10.762;2023-01-15T06:10:46;12.57;;;2.57;;
8556;SDS011;4316;53.840;10.762;2023-01-15T06:13:13;14.50;;;3.17;;
8556;SDS011;4316;53.840;10.762;2023-01-15T06:15:40;5.73;;;2.00;;
8556;SDS011;4316;53.840;10.762;2023-01-15T06:18:06;6.97;;;2.30;;
8556;SDS011;4316;53.840;10.762;2023-01-15T06:20:35;15.93;;;2.90;;
8556;SDS011;4316;53.840;10.762;2023-01-15T06:23:02;9.40;;;2.03;;
8556;SDS011;4316;53.840;10.762;2023-01-15T06:25:28;7.03;;;2.00;;
8556;SDS011;4316;53.840;10.762;2023-01-15T06:27:54;9.33;;;2.70;;
8556;SDS011;4316;53.840;10.762;2023-01-15T06:30:20;8.37;;;2.47;;
8556;SDS011;4316;53.840;10.762;2023-01-15T06:32:45;18.60;;;2.50;;
8556;SDS011;4316;53.840;10.762;2023-01-15T06:35:11;6.20;;;2.20;;
8556;SDS011;4316;53.840;10.762;2023-01-15T06:37:38;8.67;;;2.40;;
8556;SDS011;4316;53.840;10.762;2023-01-15T06:40:04;9.23;;;2.53;;
8556;SDS011;4316;53.840;10.762;2023-01-15T06:42:30;11.57;;;2.90;;
8556;SDS011;4316;53.840;10.762;2023-01-15T06:45:16;10.73;;;2.23;;
8556;SDS011;4316;53.840;10.762;2023-01-15T06:48:02;10.23;;;2.77;;
8556;SDS011;4316;53.840;10.762;2023-01-15T06:50:28;10.50;;;2.57;;
8556;SDS011;4316;53.840;10.762;2023-01-15T06:52:53;11.27;;;2.20;;
8556;SDS011;4316;53.840;10.762;2023-01-15T06:55:19;17.03;;;2.83;;
8556;SDS011;4316;53.840;10.762;2023-01-15T06:57:47;10.50;;;2.50;;
8556;SDS011;4316;53.840;10.762;2023-01-15T07:00:13;7.37;;;2.07;;
8556;SDS011;4316;53.840;10.762;2023-01-15T07:02:39;9.47;;;1.83;;
8556;SDS011;4316;53.840;10.762;2023-01-15T07:05:05;5.17;;;2.27;;
8556;SDS011;4316;53.840;10.762;2023-01-15T07:07:31;6.83;;;2.43;;
8556;SDS011;4316;53.840;10.762;2023-01-15T07:09:57;14.03;;;2.57;;
8556;SDS011;4316;53.840;10.762;2023-01-15T07:12:24;9.47;;;1.43;;
8556;SDS011;4316;53.840;10.762;2023-01-15T07:14:49;11.03;;;2.80;;
8556;SDS011;4316;53.840;10.762;2023-01-15T07:17:16;8.37;;;2.40;;
8556;SDS011;4316;53.840;10.762;2023-01-15T07:19:41;10.47;;;2.50;;
8556;SDS011;4316;53.840;10.762;2023-01-15T07:22:08;5.43;;;1.93;;
8556;SDS011;4316;53.840;10.762;2023-01-15T07:24:34;4.97;;;2.00;;
8556;SDS011;4316;53.840;10.762;2023-01-15T07:27:00;12.30;;;2.40;;
8556;SDS011;4316;53.840;10.762;2023-01-15T07:29:26;12.17;;;2.93;;
8556;SDS011;4316;53.840;10.762;2023-01-15T07:31:53;8.30;;;2.53;;
8556;SDS011;4316;53.840;10.762;2023-01-15T07:34:20;6.23;;;2.00;;
8556;SDS011;4316;53.840;10.762;2023-01-15T07:36:46;15.43;;;2.93;;
8556;SDS011;4316;53.840;10.762;2023-01-15T07:39:12;12.90;;;2.90;;
8556;SDS011;4316;53.840;10.762;2023-01-15T07:41:38;12.13;;;2.10;;
8556;SDS011;4316;53.840;10.762;2023-01-15T07:44:23;6.83;;;2.40;;
8556;SDS011;4316;53.840;10.762;2023-01-15T07:47:10;10.40;;;2.40;;
8556;SDS011;4316;53.840;10.762;2023-01-15T07:49:59;4.80;;;1.73;;
8556;SDS011;4316;53.840;10.762;2023-01-15T07:52:26;12.03;;;2.73;;
8556;SDS011;4316;53.840;10.762;2023-01-15T07:54:52;11.30;;;2.57;;
8556;SDS011;4316;53.840;10.762;2023-01-15T07:57:18;16.33;;;2.37;;
8556;SDS011;4316;53.840;10.762;2023-01-15T07:59:45;10.30;;;2.57;;
8556;SDS011;4316;53.840;10.762;2023-01-15T08:02:12;11.27;;;1.80;;
8556;SDS011;4316;53.840;10.762;2023-01-15T08:04:37;5.87;;;1.90;;
8556;SDS011;4316;53.840;10.762;2023-01-15T08:07:04;8.83;;;2.37;;
8556;SDS011;4316;53.840;10.762;2023-01-15T08:09:30;10.53;;;3.13;;
8556;SDS011;4316;53.840;10.762;2023-01-15T08:12:00;8.80;;;3.00;;
8556;SDS011;4316;53.840;10.762;2023-01-15T08:14:46;9.90;;;2.67;;
8556;SDS011;4316;53.840;10.762;2023-01-15T08:17:38;8.80;;;2.73;;
8556;SDS011;4316;53.840;10.762;2023-01-15T08:20:19;8.83;;;2.13;;
8556;SDS011;4316;53.840;10.762;2023-01-15T08:22:46;11.77;;;2.83;;
8556;SDS011;4316;53.840;10.762;2023-01-15T08:25:13;10.83;;;2.60;;
8556;SDS011;4316;53.840;10.762;2023-01-15T08:27:41;6.90;;;2.60;;
8556;SDS011;4316;53.840;10.762;2023-01-15T08:30:10;10.67;;;2.37;;
8556;SDS011;4316;53.840;10.762;2023-01-15T08:32:39;9.90;;;3.43;;
8556;SDS011;4316;53.840;10.762;2023-01-15T08:35:05;13.33;;;3.37;;
8556;SDS011;4316;53.840;10.762;2023-01-15T08:37:31;12.17;;;3.13;;
8556;SDS011;4316;53.840;10.762;2023-01-15T08:39:57;11.40;;;2.73;;
8556;SDS011;4316;53.840;10.762;2023-01-15T08:42:22;9.93;;;2.70;;
8556;SDS011;4316;53.840;10.762;2023-01-15T08:44:48;10.63;;;2.50;;
8556;SDS011;4316;53.840;10.762;2023-01-15T08:47:14;7.87;;;2.80;;
8556;SDS011;4316;53.840;10.762;2023-01-15T08:49:41;12.03;;;2.67;;
8556;SDS011;4316;53.840;10.762;2023-01-15T08:52:07;10.50;;;2.97;;
8556;SDS011;4316;53.840;10.762;2023-01-15T08:54:33;5.10;;;2.00;;
8556;SDS011;4316;53.840;10.762;2023-01-15T08:56:59;8.43;;;2.43;;
8556;SDS011;4316;53.840;10.762;2023-01-15T08:59:25;8.33;;;2.90;;
8556;SDS011;4316;53.840;10.762;2023-01-15T09:01:51;11.57;;;2.80;;
8556;SDS011;4316;53.840;10.762;2023-01-15T09:04:18;9.80;;;2.50;;
8556;SDS011;4316;53.840;10.762;2023-01-15T09:06:46;10.70;;;2.17;;
8556;SDS011;4316;53.840;10.762;2023-01-15T09:09:12;8.90;;;2.50;;
8556;SDS011;4316;53.840;10.762;2023-01-15T09:11:38;13.97;;;2.67;;
8556;SDS011;4316;53.840;10.762;2023-01-15T09:14:09;7.40;;;2.67;;
8556;SDS011;4316;53.840;10.762;2023-01-15T09:16:37;5.13;;;2.43;;
8556;SDS011;4316;53.840;10.762;2023-01-15T09:19:04;9.30;;;2.63;;
8556;SDS011;4316;53.840;10.762;2023-01-15T09:21:31;8.30;;;2.37;;
8556;SDS011;4316;53.840;10.762;2023-01-15T09:23:57;10.43;;;2.33;;
8556;SDS011;4316;53.840;10.762;2023-01-15T09:28:51;11.40;;;2.80;;
8556;SDS011;4316;53.840;10.762;2023-01-15T09:31:17;6.87;;;2.47;;
8556;SDS011;4316;53.840;10.762;2023-01-15T09:33:43;7.50;;;2.80;;
8556;SDS011;4316;53.840;10.762;2023-01-15T09:36:16;11.10;;;2.23;;
8556;SDS011;4316;53.840;10.762;2023-01-15T09:38:44;7.47;;;2.40;;
8556;SDS011;4316;53.840;10.762;2023-01-15T09:41:11;11.80;;;3.07;;
8556;SDS011;4316;53.840;10.762;2023-01-15T09:44:11;4.53;;;2.07;;
8556;SDS011;4316;53.840;10.762;2023-01-15T09:57:36;10.17;;;3.53;;
8556;SDS011;4316;53.840;10.762;2023-01-15T10:00:03;9.03;;;2.10;;
8556;SDS011;4316;53.840;10.762;2023-01-15T10:05:35;5.43;;;2.07;;
8556;SDS011;4316;53.840;10.762;2023-01-15T10:08:18;10.10;;;2.50;;
8556;SDS011;4316;53.840;10.762;2023-01-15T10:11:01;8.80;;;2.57;;
8556;SDS011;4316;53.840;10.762;2023-01-15T10:16:12;7.00;;;2.50;;
8556;SDS011;4316;53.840;10.762;2023-01-15T10:18:44;8.40;;;2.67;;
8556;SDS011;4316;53.840;10.762;2023-01-15T10:21:28;13.60;;;2.47;;
8556;SDS011;4316;53.840;10.762;2023-01-15T10:24:37;14.43;;;2.47;;
8556;SDS011;4316;53.840;10.762;2023-01-15T10:27:12;4.90;;;1.57;;
8556;SDS011;4316;53.840;10.762;2023-01-15T10:38:24;6.33;;;1.73;;
8556;SDS011;4316;53.840;10.762;2023-01-15T10:41:16;7.93;;;2.17;;
8556;SDS011;4316;53.840;10.762;2023-01-15T10:46:31;2.33;;;1.17;;
8556;SDS011;4316;53.840;10.762;2023-01-15T10:49:10;5.20;;;2.10;;
8556;SDS011;4316;53.840;10.762;2023-01-15T10:51:43;6.60;;;1.70;;
8556;SDS011;4316;53.840;10.762;2023-01-15T10:54:13;7.30;;;1.77;;
8556;SDS011;4316;53.840;10.762;2023-01-15T10:59:45;2.77;;;1.33;;
8556;SDS011;4316;53.840;10.762;2023-01-15T11:04:52;7.33;;;2.17;;
8556;SDS011;4316;53.840;10.762;2023-01-15T11:07:20;8.90;;;2.07;;
8556;SDS011;4316;53.840;10.762;2023-01-15T11:09:48;4.23;;;1.50;;
8556;SDS011;4316;53.840;10.762;2023-01-15T11:12:19;8.57;;;2.00;;
8556;SDS011;4316;53.840;10.762;2023-01-15T11:14:49;9.30;;;2.30;;
8556;SDS011;4316;53.840;10.762;2023-01-15T11:17:53;2.90;;;1.67;;
8556;SDS011;4316;53.840;10.762;2023-01-15T11:20:42;3.80;;;1.97;;
8556;SDS011;4316;53.840;10.762;2023-01-15T11:23:11;2.13;;;1.30;;
8556;SDS011;4316;53.840;10.762;2023-01-15T11:25:47;5.97;;;1.80;;
8556;SDS011;4316;53.840;10.762;2023-01-15T11:28:16;3.97;;;1.30;;
8556;SDS011;4316;53.840;10.762;2023-01-15T11:30:51;5.20;;;1.73;;
8556;SDS011;4316;53.840;10.762;2023-01-15T11:33:23;5.33;;;1.60;;
8556;SDS011;4316;53.840;10.762;2023-01-15T11:35:55;5.27;;;1.67;;
8556;SDS011;4316;53.840;10.762;2023-01-15T11:38:28;4.53;;;1.77;;
8556;SDS011;4316;53.840;10.762;2023-01-15T11:40:58;6.67;;;1.53;;
8556;SDS011;4316;53.840;10.762;2023-01-15T11:43:29;5.17;;;1.57;;
8556;SDS011;4316;53.840;10.762;2023-01-15T11:49:17;5.70;;;2.00;;
8556;SDS011;4316;53.840;10.762;2023-01-15T11:52:04;6.93;;;1.57;;
8556;SDS011;4316;53.840;10.762;2023-01-15T11:54:35;5.67;;;2.13;;
8556;SDS011;4316;53.840;10.762;2023-01-15T11:57:04;6.17;;;1.50;;
8556;SDS011;4316;53.840;10.762;2023-01-15T11:59:31;2.13;;;1.10;;
8556;SDS011;4316;53.840;10.762;2023-01-15T12:01:58;5.43;;;1.90;;
8556;SDS011;4316;53.840;10.762;2023-01-15T12:04:35;4.10;;;1.30;;
8556;SDS011;4316;53.840;10.762;2023-01-15T12:07:04;4.87;;;2.30;;
8556;SDS011;4316;53.840;10.762;2023-01-15T12:15:55;2.17;;;1.20;;
8556;SDS011;4316;53.840;10.762;2023-01-15T12:25:51;8.80;;;1.97;;
8556;SDS011;4316;53.840;10.762;2023-01-15T12:28:39;5.93;;;1.60;;
8556;SDS011;4316;53.840;10.762;2023-01-15T12:31:13;8.13;;;1.47;;
8556;SDS011;4316;53.840;10.762;2023-01-15T12:33:45;6.60;;;1.73;;
8556;SDS011;4316;53.840;10.762;2023-01-15T12:36:28;1.80;;;0.93;;
8556;SDS011;4316;53.840;10.762;2023-01-15T12:39:21;3.73;;;1.20;;
8556;SDS011;4316;53.840;10.762;2023-01-15T12:41:53;5.93;;;1.10;;
8556;SDS011;4316;53.840;10.762;2023-01-15T12:44:51;1.63;;;0.90;;
8556;SDS011;4316;53.840;10.762;2023-01-15T12:47:28;2.17;;;1.03;;
8556;SDS011;4316;53.840;10.762;2023-01-15T12:52:47;2.37;;;0.90;;
8556;SDS011;4316;53.840;10.762;2023-01-15T12:55:21;1.80;;;1.07;;
8556;SDS011;4316;53.840;10.762;2023-01-15T12:58:01;1.23;;;0.80;;
8556;SDS011;4316;53.840;10.762;2023-01-15T13:00:40;1.00;;;0.83;;
8556;SDS011;4316;53.840;10.762;2023-01-15T13:03:18;1.77;;;0.80;;
8556;SDS011;4316;53.840;10.762;2023-01-15T13:06:01;0.70;;;0.70;;
8556;SDS011;4316;53.840;10.762;2023-01-15T13:08:32;5.77;;;1.20;;
8556;SDS011;4316;53.840;10.762;2023-01-15T13:10:59;2.33;;;0.90;;
8556;SDS011;4316;53.840;10.762;2023-01-15T13:13:29;0.83;;;0.83;;
8556;SDS011;4316;53.840;10.762;2023-01-15T13:21:18;1.70;;;1.00;;
8556;SDS011;4316;53.840;10.762;2023-01-15T13:32:02;6.60;;;1.57;;
8556;SDS011;4316;53.840;10.762;2023-01-15T13:42:45;2.40;;;1.43;;
8556;SDS011;4316;53.840;10.762;2023-01-15T13:47:43;5.40;;;1.97;;
8556;SDS011;4316;53.840;10.762;2023-01-15T13:50:12;8.90;;;1.73;;
8556;SDS011;4316;53.840;10.762;2023-01-15T13:52:47;5.47;;;2.33;;
8556;SDS011;4316;53.840;10.762;2023-01-15T13:57:48;8.00;;;2.43;;
8556;SDS011;4316;53.840;10.762;2023-01-15T14:03:00;2.90;;;1.40;;
8556;SDS011;4316;53.840;10.762;2023-01-15T14:05:29;5.93;;;2.23;;
8556;SDS011;4316;53.840;10.762;2023-01-15T14:07:55;5.30;;;1.97;;
8556;SDS011;4316;53.840;10.762;2023-01-15T14:10:23;5.57;;;2.23;;
8556;SDS011;4316;53.840;10.762;2023-01-15T14:12:55;8.97;;;2.33;;
8556;SDS011;4316;53.840;10.762;2023-01-15T14:18:23;5.73;;;2.33;;
8556;SDS011;4316;53.840;10.762;2023-01-15T14:23:45;11.77;;;1.87;;
8556;SDS011;4316;53.840;10.762;2023-01-15T14:34:40;5.83;;;2.00;;
8556;SDS011;4316;53.840;10.762;2023-01-15T14:47:42;6.40;;;2.20;;
8556;SDS011;4316;53.840;10.762;2023-01-15T14:50:27;6.93;;;1.73;;
8556;SDS011;4316;53.840;10.762;2023-01-15T14:53:13;2.73;;;1.70;;
8556;SDS011;4316;53.840;10.762;2023-01-15T14:55:52;7.37;;;1.83;;
8556;SDS011;4316;53.840;10.762;2023-01-15T14:58:35;7.77;;;2.00;;
8556;SDS011;4316;53.840;10.762;2023-01-15T15:04:00;13.13;;;1.97;;
8556;SDS011;4316;53.840;10.762;2023-01-15T15:06:28;4.97;;;1.70;;
8556;SDS011;4316;53.840;10.762;2023-01-15T15:08:57;4.87;;;1.90;;
8556;SDS011;4316;53.840;10.762;2023-01-15T15:11:31;1.87;;;1.70;;
8556;SDS011;4316;53.840;10.762;2023-01-15T15:14:21;5.33;;;2.10;;
8556;SDS011;4316;53.840;10.762;2023-01-15T15:16:50;6.33;;;1.97;;
8556;SDS011;4316;53.840;10.762;2023-01-15T15:19:23;9.00;;;1.87;;
8556;SDS011;4316;53.840;10.762;2023-01-15T15:22:04;3.73;;;1.53;;
8556;SDS011;4316;53.840;10.762;2023-01-15T15:24:33;6.47;;;1.77;;
8556;SDS011;4316;53.840;10.762;2023-01-15T15:27:22;7.90;;;1.87;;
8556;SDS011;4316;53.840;10.762;2023-01-15T15:29:48;5.67;;;1.50;;
8556;SDS011;4316;53.840;10.762;2023-01-15T15:32:16;2.17;;;1.80;;
8556;SDS011;4316;53.840;10.762;2023-01-15T15:34:48;3.90;;;2.10;;
8556;SDS011;4316;53.840;10.762;2023-01-15T15:37:21;8.73;;;2.27;;
8556;SDS011;4316;53.840;10.762;2023-01-15T15:42:34;7.73;;;2.10;;
8556;SDS011;4316;53.840;10.762;2023-01-15T15:45:28;2.67;;;1.30;;
8556;SDS011;4316;53.840;10.762;2023-01-15T15:48:18;6.00;;;1.80;;
8556;SDS011;4316;53.840;10.762;2023-01-15T15:54:03;9.33;;;2.13;;
8556;SDS011;4316;53.840;10.762;2023-01-15T15:56:34;7.20;;;2.20;;
8556;SDS011;4316;53.840;10.762;2023-01-15T15:59:01;7.60;;;1.90;;
8556;SDS011;4316;53.840;10.762;2023-01-15T16:01:30;8.37;;;3.97;;
8556;SDS011;4316;53.840;10.762;2023-01-15T16:04:01;11.23;;;2.83;;
8556;SDS011;4316;53.840;10.762;2023-01-15T16:06:27;10.37;;;2.93;;
8556;SDS011;4316;53.840;10.762;2023-01-15T16:08:54;6.97;;;3.10;;
8556;SDS011;4316;53.840;10.762;2023-01-15T16:11:28;4.50;;;2.60;;
8556;SDS011;4316;53.840;10.762;2023-01-15T16:13:56;6.60;;;2.30;;
8556;SDS011;4316;53.840;10.762;2023-01-15T16:16:26;6.60;;;1.87;;
8556;SDS011;4316;53.840;10.762;2023-01-15T16:18:53;3.03;;;2.37;;
8556;SDS011;4316;53.840;10.762;2023-01-15T16:21:32;2.03;;;1.13;;
8556;SDS011;4316;53.840;10.762;2023-01-15T16:24:03;6.33;;;1.73;;
8556;SDS011;4316;53.840;10.762;2023-01-15T16:26:35;5.87;;;2.30;;
8556;SDS011;4316;53.840;10.762;2023-01-15T16:29:05;1.50;;;0.93;;
8556;SDS011;4316;53.840;10.762;2023-01-15T16:31:42;4.33;;;1.50;;
8556;SDS011;4316;53.840;10.762;2023-01-15T16:34:14;6.77;;;1.87;;
8556;SDS011;4316;53.840;10.762;2023-01-15T16:36:43;2.57;;;0.87;;
8556;SDS011;4316;53.840;10.762;2023-01-15T16:39:20;6.47;;;1.67;;
8556;SDS011;4316;53.840;10.762;2023-01-15T16:41:47;2.77;;;1.77;;
8556;SDS011;4316;53.840;10.762;2023-01-15T16:44:28;1.90;;;1.70;;
8556;SDS011;4316;53.840;10.762;2023-01-15T16:47:00;3.30;;;1.63;;
8556;SDS011;4316;53.840;10.762;2023-01-15T16:49:28;4.33;;;2.00;;
8556;SDS011;4316;53.840;10.762;2023-01-15T16:51:55;5.33;;;2.30;;
8556;SDS011;4316;53.840;10.762;2023-01-15T16:57:00;2.33;;;1.50;;
8556;SDS011;4316;53.840;10.762;2023-01-15T17:01:55;8.30;;;1.77;;
8556;SDS011;4316;53.840;10.762;2023-01-15T17:04:28;3.97;;;1.77;;
8556;SDS011;4316;53.840;10.762;2023-01-15T17:06:56;6.07;;;1.70;;
8556;SDS011;4316;53.840;10.762;2023-01-15T17:09:27;3.87;;;1.70;;
8556;SDS011;4316;53.840;10.762;2023-01-15T17:11:55;1.47;;;1.20;;
8556;SDS011;4316;53.840;10.762;2023-01-15T17:14:23;2.03;;;1.70;;
8556;SDS011;4316;53.840;10.762;2023-01-15T17:19:48;3.57;;;1.77;;
8556;SDS011;4316;53.840;10.762;2023-01-15T17:22:22;5.07;;;2.53;;
8556;SDS011;4316;53.840;10.762;2023-01-15T17:24:53;3.33;;;2.17;;
8556;SDS011;4316;53.840;10.762;2023-01-15T17:27:23;3.60;;;2.27;;
8556;SDS011;4316;53.840;10.762;2023-01-15T17:29:50;4.13;;;2.33;;
8556;SDS011;4316;53.840;10.762;2023-01-15T17:32:19;4.80;;;2.63;;
8556;SDS011;4316;53.840;10.762;2023-01-15T17:34:52;2.20;;;1.57;;
8556;SDS011;4316;53.840;10.762;2023-01-15T17:37:18;4.73;;;2.20;;
8556;SDS011;4316;53.840;10.762;2023-01-15T17:39:44;8.23;;;1.77;;
8556;SDS011;4316;53.840;10.762;2023-01-15T17:42:13;7.47;;;2.10;;
8556;SDS011;4316;53.840;10.762;2023-01-15T17:44:40;4.03;;;2.63;;
8556;SDS011;4316;53.840;10.762;2023-01-15T17:47:06;4.53;;;2.07;;
8556;SDS011;4316;53.840;10.762;2023-01-15T17:49:33;7.40;;;2.13;;
8556;SDS011;4316;53.840;10.762;2023-01-15T17:51:59;5.17;;;2.37;;